Time;durP1;ratioP1;P1;durP2;ratioP2;P2;SDS_P1;SDS_P2;PMS_P1;PMS_P2;Temp;Humidity;BMP_temperature;BMP_pressure;BME280_temperature;BME280_humidity;BME280_pressure;Samples;Min_cycle;Max_cycle;Signal;HPM_P1;HPM_P2
2022/11/19 00:00:38;;;;;;;;;14.75;8.75;;;;;9.13;70.51;100566.22;4956675;28;46260;-72
2022/11/19 00:03:03;;;;;;;;;8.75;8.00;;;;;9.34;70.34;100594.75;4957471;28;45336;-72
2022/11/19 00:05:28;;;;;;;;;10.00;8.75;;;;;9.26;70.36;100579.97;4957641;28;45366;-73
2022/11/19 00:07:54;;;;;;;;;8.50;7.50;;;;;9.29;70.51;100591.38;4957900;28;45555;-71
2022/11/19 00:10:19;;;;;;;;;9.00;9.00;;;;;8.90;70.47;100534.25;4957734;28;46424;-75
2022/11/19 00:12:53;;;;;;;;;8.75;8.00;;;;;9.21;70.19;100582.81;4957904;28;45370;-73
2022/11/19 00:15:19;;;;;;;;;9.00;9.00;;;;;9.21;70.65;100580.16;4957407;28;45445;-73
2022/11/19 00:17:44;;;;;;;;;9.00;8.00;;;;;9.13;70.77;100568.03;4957875;28;45432;-72
2022/11/19 00:20:10;;;;;;;;;9.75;9.75;;;;;9.21;71.02;100580.16;4957586;28;45944;-73
2022/11/19 00:22:35;;;;;;;;;8.00;8.00;;;;;9.15;70.77;100577.75;4960591;28;45399;-73
2022/11/19 00:25:00;;;;;;;;;9.25;7.75;;;;;9.18;70.90;100582.97;4961103;28;45356;-73
2022/11/19 00:27:26;;;;;;;;;8.25;7.00;;;;;9.20;70.80;100581.06;4959725;28;45628;-75
2022/11/19 00:29:51;;;;;;;;;9.25;8.00;;;;;9.16;70.90;100574.13;4961005;28;45349;-72
2022/11/19 05:33:38;;;;;;;;;6.00;3.75;;;;;9.20;71.94;100695.22;4956944;28;45457;-75
2022/11/19 05:36:04;;;;;;;;;3.00;3.00;;;;;9.19;71.97;100696.13;4939175;28;47250;-75
2022/11/19 05:38:29;;;;;;;;;4.75;3.00;;;;;9.22;71.69;100696.03;4946249;28;45181;-75
2022/11/19 05:40:55;;;;;;;;;7.75;5.75;;;;;9.20;71.75;100688.06;4919821;28;45324;-75
2022/11/19 05:43:20;;;;;;;;;6.00;5.00;;;;;9.15;72.01;100691.88;4937540;28;45469;-74
2022/11/19 05:45:45;;;;;;;;;4.25;3.50;;;;;9.09;72.33;100687.66;4937347;28;46075;-75
2022/11/19 05:48:11;;;;;;;;;8.00;4.00;;;;;9.17;72.31;100692.69;4937550;28;45745;-76
2022/11/19 05:50:36;;;;;;;;;4.00;4.00;;;;;9.21;72.07;100692.47;4937183;28;45224;-75
2022/11/19 05:53:04;;;;;;;;;10.75;5.50;;;;;9.13;72.25;100675.88;4937377;28;45502;-75
2022/11/19 05:55:29;;;;;;;;;3.25;3.25;;;;;9.21;72.25;100695.16;4936986;28;45390;-75
2022/11/19 05:57:54;;;;;;;;;4.25;4.25;;;;;9.14;72.72;100687.44;4952828;28;45888;-74
2022/11/19 06:00:20;;;;;;;;;5.25;4.00;;;;;9.19;72.36;100690.78;4942234;28;45469;-76
2022/11/19 06:02:46;;;;;;;;;9.00;5.25;;;;;9.15;72.69;100686.53;4942444;28;45496;-74
2022/11/19 06:05:11;;;;;;;;;5.25;4.00;;;;;9.17;72.75;100695.34;4942359;28;45267;-74
2022/11/19 06:07:37;;;;;;;;;8.50;4.00;;;;;9.10;72.54;100692.06;4938998;28;45368;-75
2022/11/19 06:10:02;;;;;;;;;7.25;5.25;;;;;9.05;72.96;100689.56;4937891;28;45304;-75
2022/11/19 06:12:28;;;;;;;;;5.00;5.00;;;;;8.95;73.02;100677.50;4955767;28;45377;-75
2022/11/19 06:14:54;;;;;;;;;7.00;4.00;;;;;9.04;73.08;100687.81;4955866;28;45409;-76
2022/11/19 06:17:19;;;;;;;;;4.25;4.25;;;;;9.01;73.42;100687.97;4956152;28;45259;-76
2022/11/19 06:19:45;;;;;;;;;5.25;4.00;;;;;9.00;73.18;100680.00;4956004;28;45565;-75
2022/11/19 06:22:10;;;;;;;;;4.75;4.75;;;;;8.85;72.83;100668.09;4956157;28;45156;-75
2022/11/19 06:24:36;;;;;;;;;9.50;5.00;;;;;9.01;72.88;100703.13;4938364;28;45438;-74
2022/11/19 06:27:01;;;;;;;;;3.00;3.00;;;;;8.97;73.01;100680.13;4955876;28;45504;-77
2022/11/19 06:29:26;;;;;;;;;4.00;4.00;;;;;9.02;73.51;100695.03;4955970;28;45339;-75
2022/11/19 06:31:51;;;;;;;;;5.25;5.25;;;;;9.10;73.40;100708.13;4962181;28;45221;-75
2022/11/19 06:34:17;;;;;;;;;2.75;2.75;;;;;9.08;72.96;100708.19;4957590;28;47057;-76
2022/11/19 06:36:42;;;;;;;;;5.00;5.00;;;;;9.00;73.02;100712.09;4975433;28;45211;-76
2022/11/19 06:39:08;;;;;;;;;4.25;4.25;;;;;8.83;72.99;100690.50;4975357;28;45433;-76
2022/11/19 06:41:33;;;;;;;;;4.00;4.00;;;;;9.00;73.09;100730.81;4975349;28;45271;-75
2022/11/19 06:44:00;;;;;;;;;5.25;5.25;;;;;8.97;73.35;100736.25;4957520;28;48387;-75
2022/11/19 06:46:25;;;;;;;;;7.75;3.25;;;;;8.95;73.68;100735.44;4975518;28;45430;-74
2022/11/19 06:48:51;;;;;;;;;4.00;4.00;;;;;8.98;73.23;100738.00;4975320;28;45476;-75
2022/11/19 06:51:16;;;;;;;;;4.00;4.00;;;;;9.02;73.16;100737.81;4975221;28;45254;-74
2022/11/19 06:53:41;;;;;;;;;7.25;5.50;;;;;9.04;73.28;100756.47;4974871;28;46197;-75
2022/11/19 06:56:07;;;;;;;;;6.25;4.00;;;;;8.92;73.13;100743.59;4975025;28;45311;-75
2022/11/19 06:58:33;;;;;;;;;4.00;4.00;;;;;8.95;73.37;100746.13;4957463;28;45346;-75
2022/11/19 07:00:58;;;;;;;;;5.25;5.25;;;;;8.82;73.15;100743.09;4975246;28;45420;-75
2022/11/19 07:03:26;;;;;;;;;5.00;5.00;;;;;8.78;74.27;100746.78;4974774;28;45943;-75
2022/11/19 07:06:01;;;;;;;;;8.75;7.75;;;;;8.77;74.12;100752.19;4975043;28;45355;-75
2022/11/19 07:08:27;;;;;;;;;8.75;7.00;;;;;8.67;74.17;100751.69;4974958;28;45416;-77
2022/11/19 07:10:53;;;;;;;;;7.00;7.00;;;;;8.73;74.42;100755.00;4974583;28;45487;-76
2022/11/19 07:13:18;;;;;;;;;8.25;8.00;;;;;8.65;74.18;100741.06;4974726;28;45685;-76
2022/11/19 07:15:44;;;;;;;;;6.25;6.25;;;;;8.76;74.28;100769.19;4975034;28;45228;-77
2022/11/19 07:18:09;;;;;;;;;5.00;5.00;;;;;8.65;74.11;100757.09;4955938;28;45341;-73
2022/11/19 07:20:35;;;;;;;;;9.75;5.00;;;;;8.58;74.19;100749.38;4956844;28;46805;-74
2022/11/19 07:23:01;;;;;;;;;8.00;8.00;;;;;8.63;74.47;100761.63;4970851;28;46330;-74
2022/11/19 07:25:27;;;;;;;;;9.50;6.25;;;;;8.62;74.38;100757.19;4958650;28;45428;-73
2022/11/19 07:27:52;;;;;;;;;7.75;7.75;;;;;8.58;74.45;100766.28;4978864;28;45454;-76
2022/11/19 07:30:17;;;;;;;;;8.25;8.25;;;;;8.63;74.81;100777.66;4978268;28;45787;-74
2022/11/19 07:32:43;;;;;;;;;7.50;6.25;;;;;8.61;74.49;100783.97;4976095;28;45349;-76
2022/11/19 07:35:09;;;;;;;;;10.25;7.50;;;;;8.60;74.35;100774.22;4977306;28;45592;-76
2022/11/19 07:37:35;;;;;;;;;9.50;8.00;;;;;8.58;74.84;100784.97;4977353;28;45489;-74
2022/11/19 07:40:02;;;;;;;;;7.00;7.00;;;;;8.55;75.18;100781.53;4976558;28;45224;-75
2022/11/19 07:45:11;;;;;;;;;7.50;6.25;;;;;8.37;75.07;100764.38;4965966;28;46184;-76
2022/11/19 07:47:36;;;;;;;;;10.75;9.25;;;;;8.47;74.82;100783.63;4969641;28;45464;-75
2022/11/19 07:50:03;;;;;;;;;10.25;7.75;;;;;8.60;74.79;100792.91;4975204;28;45546;-74
2022/11/19 07:52:29;;;;;;;;;10.75;8.25;;;;;8.58;74.73;100801.03;4974758;28;45451;-74
2022/11/19 07:54:55;;;;;;;;;9.75;9.00;;;;;8.52;74.77;100800.34;4977519;28;45433;-75
2022/11/19 07:57:21;;;;;;;;;8.50;7.25;;;;;8.56;75.02;100799.31;4962874;28;45398;-75
2022/11/19 07:59:46;;;;;;;;;9.00;8.25;;;;;8.62;74.95;100805.31;4960328;28;45344;-76
2022/11/19 08:02:12;;;;;;;;;13.00;6.75;;;;;8.50;75.08;100780.84;4961751;28;45684;-74
2022/11/19 08:04:38;;;;;;;;;12.00;8.50;;;;;8.72;74.35;100816.53;4958862;28;45427;-76
2022/11/19 08:07:03;;;;;;;;;9.00;8.75;;;;;8.63;74.76;100809.72;4976300;28;45650;-75
2022/11/19 08:09:29;;;;;;;;;8.75;8.00;;;;;8.71;74.54;100825.47;4958433;28;45654;-74
2022/11/19 08:11:54;;;;;;;;;8.00;7.00;;;;;8.83;74.31;100834.84;4976407;28;46548;-75
2022/11/19 08:14:20;;;;;;;;;7.00;7.00;;;;;8.89;74.25;100845.31;4975669;28;45511;-71
2022/11/19 08:19:31;;;;;;;;;6.25;4.50;;;;;9.03;73.68;100834.94;4957900;28;45476;-74
2022/11/19 08:21:56;;;;;;;;;7.75;6.75;;;;;9.11;73.31;100841.75;4965504;28;45993;-74
2022/11/19 08:24:22;;;;;;;;;9.75;8.25;;;;;9.16;72.93;100852.28;4977553;28;45295;-75
2022/11/19 08:26:47;;;;;;;;;6.50;5.25;;;;;9.19;72.72;100849.47;4977874;28;45223;-75
2022/11/19 08:29:15;;;;;;;;;6.75;6.75;;;;;9.23;72.95;100858.28;4977434;28;45245;-76
2022/11/19 08:31:41;;;;;;;;;2.00;2.00;;;;;9.28;72.54;100854.47;4956089;28;47424;-73
2022/11/19 08:34:07;;;;;;;;;8.25;8.25;;;;;9.23;72.66;100847.56;4953320;28;45300;-76
2022/11/19 08:36:32;;;;;;;;;6.50;6.50;;;;;9.29;72.85;100853.56;4956269;28;45745;-78
2022/11/19 08:38:59;;;;;;;;;3.25;3.25;;;;;9.35;72.71;100847.97;4957489;28;45356;-79
2022/11/19 08:44:10;;;;;;;;;9.00;9.00;;;;;9.60;71.63;100855.03;4955370;28;45421;-76
2022/11/19 08:46:37;;;;;;;;;7.00;7.00;;;;;9.70;72.17;100867.09;4956387;28;45341;-75
2022/11/19 08:49:03;;;;;;;;;4.75;4.75;;;;;9.73;71.77;100870.53;4954382;28;45495;-76
2022/11/19 08:51:28;;;;;;;;;7.25;7.00;;;;;9.74;71.31;100871.41;4957526;28;45266;-75
2022/11/19 08:53:53;;;;;;;;;8.00;5.00;;;;;9.72;72.06;100866.09;4955666;28;45384;-73
2022/11/19 08:56:20;;;;;;;;;9.25;6.00;;;;;9.77;71.58;100880.19;4957156;28;45431;-75
2022/11/19 08:58:45;;;;;;;;;8.25;7.00;;;;;9.67;71.73;100856.53;4956809;28;45535;-71
2022/11/19 09:01:13;;;;;;;;;7.25;7.25;;;;;9.82;71.26;100880.88;4957305;28;45552;-74
2022/11/19 09:03:39;;;;;;;;;8.25;8.25;;;;;9.82;71.65;100875.50;4957257;28;45397;-73
2022/11/19 09:06:05;;;;;;;;;8.50;7.00;;;;;9.82;71.50;100869.28;4946285;28;45402;-71
2022/11/19 09:08:32;;;;;;;;;9.00;5.25;;;;;9.93;70.79;100887.59;4955430;28;45437;-72
2022/11/19 09:10:57;;;;;;;;;7.00;7.00;;;;;9.88;70.74;100875.25;4952223;28;45463;-73
2022/11/19 09:13:23;;;;;;;;;6.25;6.25;;;;;10.00;71.39;100884.59;4950579;28;45247;-71
2022/11/19 09:15:49;;;;;;;;;6.00;6.00;;;;;9.97;70.95;100868.66;4948012;28;45499;-74
2022/11/19 09:18:14;;;;;;;;;8.25;7.00;;;;;10.03;70.61;100883.63;4954990;28;45634;-72
2022/11/19 09:20:40;;;;;;;;;10.50;8.00;;;;;9.99;70.87;100871.25;4956597;28;46071;-77
2022/11/19 09:23:05;;;;;;;;;6.25;5.00;;;;;10.01;71.10;100881.00;4955854;28;45348;-74
2022/11/19 09:25:32;;;;;;;;;6.00;6.00;;;;;10.00;71.14;100887.28;4956247;28;45428;-73
2022/11/19 09:27:57;;;;;;;;;8.00;6.25;;;;;9.83;71.24;100860.31;4956989;28;45317;-74
2022/11/19 09:30:22;;;;;;;;;10.75;6.00;;;;;10.01;70.98;100875.63;4957465;28;45298;-78
2022/11/19 09:32:48;;;;;;;;;6.75;6.75;;;;;10.10;70.84;100891.31;4971364;28;45428;-73
2022/11/19 09:35:13;;;;;;;;;7.75;6.25;;;;;9.96;70.41;100871.38;4978465;28;45353;-73
2022/11/19 09:37:38;;;;;;;;;5.75;4.75;;;;;9.99;71.02;100874.81;4977506;28;45487;-74
2022/11/19 09:40:08;;;;;;;;;7.50;7.00;;;;;10.10;70.56;100885.09;4977417;28;45283;-73
2022/11/19 09:42:57;;;;;;;;;6.75;6.25;;;;;10.19;70.14;100901.69;4976296;28;45429;-74
2022/11/19 09:45:40;;;;;;;;;8.75;7.75;;;;;9.81;70.28;100857.69;4976082;28;45397;-73
2022/11/19 09:48:20;;;;;;;;;7.25;4.75;;;;;10.08;70.54;100914.63;4975395;28;45393;-73
2022/11/19 09:51:17;;;;;;;;;7.25;6.00;;;;;10.06;70.59;100910.25;4975773;28;47375;-74
2022/11/19 09:54:02;;;;;;;;;7.00;4.25;;;;;10.05;70.82;100900.47;4959561;28;45314;-73
2022/11/19 09:56:35;;;;;;;;;8.00;6.25;;;;;10.10;70.62;100912.75;4975935;28;45815;-72
2022/11/19 09:59:10;;;;;;;;;4.50;4.50;;;;;10.15;70.75;100905.38;4975694;28;45277;-74
2022/11/19 10:01:36;;;;;;;;;4.75;4.00;;;;;10.22;70.03;100908.72;4975791;28;45638;-73
2022/11/19 10:04:03;;;;;;;;;4.00;4.00;;;;;10.17;70.28;100900.88;4975849;28;45344;-73
2022/11/19 10:06:43;;;;;;;;;4.75;4.75;;;;;10.26;70.29;100912.16;4975750;28;45175;-73
2022/11/19 10:09:11;;;;;;;;;4.00;4.00;;;;;10.24;70.39;100910.41;4975659;28;45314;-73
2022/11/19 10:11:49;;;;;;;;;4.00;4.00;;;;;10.28;69.97;100911.16;4975191;28;45446;-73
2022/11/19 10:14:31;;;;;;;;;6.75;4.50;;;;;10.31;70.10;100911.00;4975966;28;45282;-73
2022/11/19 10:17:15;;;;;;;;;8.50;3.75;;;;;10.42;70.51;100910.56;4975711;28;45320;-71
2022/11/19 10:20:29;;;;;;;;;7.25;5.00;;;;;10.42;69.45;100883.75;4975397;28;45505;-73
2022/11/19 10:23:05;;;;;;;;;4.75;3.00;;;;;10.59;68.90;100906.22;4975106;28;46588;-70
2022/11/19 10:25:37;;;;;;;;;4.00;4.00;;;;;10.62;68.91;100905.22;4975637;28;45359;-74
2022/11/19 10:28:28;;;;;;;;;5.00;5.00;;;;;10.64;69.08;100895.28;4975970;28;45456;-75
2022/11/19 10:31:07;;;;;;;;;11.00;7.50;;;;;10.79;68.52;100912.53;4975713;28;45250;-77
2022/11/19 10:33:39;;;;;;;;;8.25;6.50;;;;;10.84;69.09;100895.28;4975570;28;46340;-75
2022/11/19 10:36:13;;;;;;;;;6.50;6.50;;;;;10.60;68.78;100850.78;4975342;28;45351;-74
2022/11/19 10:38:50;;;;;;;;;5.75;5.00;;;;;11.05;68.08;100904.19;4975281;28;45191;-77
2022/11/19 10:41:45;;;;;;;;;4.25;4.00;;;;;11.14;68.27;100900.22;4975457;28;45424;-75
2022/11/19 10:44:36;;;;;;;;;5.00;5.00;;;;;11.26;67.50;100900.50;4954114;28;46066;-74
2022/11/19 10:47:07;;;;;;;;;5.25;4.00;;;;;11.33;67.71;100893.03;4969923;28;45255;-76
2022/11/19 10:49:39;;;;;;;;;3.00;3.00;;;;;11.48;66.51;100888.78;4975586;28;45360;-75
2022/11/19 10:52:16;;;;;;;;;3.00;2.75;;;;;11.57;65.79;100894.56;4974963;28;45576;-77
2022/11/19 10:54:43;;;;;;;;;6.00;3.25;;;;;11.69;66.27;100888.63;4974943;28;45623;-76
2022/11/19 10:57:15;;;;;;;;;4.25;4.25;;;;;11.80;64.94;100882.78;4974880;28;45498;-75
2022/11/19 10:59:41;;;;;;;;;5.00;5.00;;;;;12.01;65.57;100889.75;4974897;28;45644;-76
2022/11/19 11:02:21;;;;;;;;;9.00;5.00;;;;;12.63;63.71;100895.59;4974811;28;45322;-73
2022/11/19 11:05:04;;;;;;;;;5.00;3.75;;;;;13.83;61.67;100895.31;4974911;28;45466;-75
2022/11/19 11:07:49;;;;;;;;;6.00;4.75;;;;;14.69;56.48;100889.34;4975051;28;45373;-75
2022/11/19 11:10:43;;;;;;;;;5.50;4.75;;;;;14.93;56.21;100889.66;4974715;28;45356;-75
2022/11/19 11:16:37;;;;;;;;;5.00;3.50;;;;;14.55;55.75;100883.88;4974604;28;45800;-74
2022/11/19 11:19:11;;;;;;;;;6.00;5.00;;;;;14.21;56.33;100887.69;4974791;28;45449;-72
2022/11/19 11:21:38;;;;;;;;;5.00;5.00;;;;;13.85;57.69;100877.22;4974625;28;45417;-75
2022/11/19 11:24:05;;;;;;;;;5.75;5.00;;;;;13.66;58.12;100887.31;4968375;28;46320;-72
2022/11/19 11:26:33;;;;;;;;;4.00;4.00;;;;;13.51;58.60;100888.16;4957053;28;45489;-75
2022/11/19 11:29:25;;;;;;;;;3.00;3.00;;;;;13.24;58.58;100864.50;4967430;28;45379;-73
2022/11/19 11:31:51;;;;;;;;;9.75;5.25;;;;;13.18;59.32;100889.03;4964786;28;45495;-72
2022/11/19 11:34:35;;;;;;;;;4.75;4.75;;;;;13.02;59.60;100889.91;4973562;28;45398;-73
2022/11/19 11:37:05;;;;;;;;;3.75;3.00;;;;;12.99;60.72;100887.41;4962765;28;46691;-75
2022/11/19 11:39:35;;;;;;;;;5.00;5.00;;;;;12.89;60.48;100858.31;4954343;28;45458;-74
2022/11/19 11:42:01;;;;;;;;;5.50;5.50;;;;;13.12;60.50;100889.34;4967849;28;46047;-74
2022/11/19 11:44:31;;;;;;;;;4.25;3.00;;;;;13.10;60.47;100876.94;4973064;28;45395;-72
2022/11/19 11:47:01;;;;;;;;;5.00;5.00;;;;;13.18;59.78;100883.66;4974224;28;46015;-75
2022/11/19 11:49:45;;;;;;;;;5.00;4.50;;;;;13.21;61.16;100875.44;4974176;28;45507;-73
2022/11/19 11:52:10;;;;;;;;;2.00;2.00;;;;;13.34;59.50;100881.03;4974168;28;45361;-74
2022/11/19 11:54:52;;;;;;;;;4.00;4.00;;;;;13.39;59.38;100883.44;4974369;28;45387;-71
2022/11/19 11:57:22;;;;;;;;;4.50;4.50;;;;;13.38;60.04;100874.50;4950506;28;47517;-75
2022/11/19 11:59:48;;;;;;;;;4.25;3.50;;;;;13.40;58.95;100869.03;4955045;28;45381;-75
2022/11/19 12:02:34;;;;;;;;;4.00;4.00;;;;;13.42;58.51;100867.13;4968414;28;45401;-73
2022/11/19 12:05:02;;;;;;;;;4.00;3.50;;;;;13.47;58.80;100867.72;4968838;28;45437;-77
2022/11/19 12:07:44;;;;;;;;;2.00;2.00;;;;;13.37;58.42;100872.75;4952736;28;47521;-72
2022/11/19 12:10:25;;;;;;;;;4.00;4.00;;;;;13.32;59.13;100873.97;4952915;28;45680;-75
2022/11/19 12:13:27;;;;;;;;;3.75;2.00;;;;;13.24;59.29;100863.63;4976776;28;45503;-75
2022/11/19 12:15:58;;;;;;;;;3.00;3.00;;;;;13.23;59.20;100873.53;4977743;28;45351;-75
2022/11/19 12:18:40;;;;;;;;;2.00;2.00;;;;;13.21;58.65;100872.75;4976718;28;45510;-72
2022/11/19 12:21:21;;;;;;;;;4.00;2.75;;;;;13.13;59.35;100864.22;4976728;28;45259;-73
2022/11/19 12:23:56;;;;;;;;;4.75;3.50;;;;;13.17;59.53;100871.19;4972495;28;45396;-72
2022/11/19 12:26:48;;;;;;;;;2.75;2.75;;;;;13.15;59.23;100862.31;4973085;28;45425;-73
2022/11/19 12:29:47;;;;;;;;;3.00;3.00;;;;;13.08;59.27;100863.56;4974265;28;45662;-73
2022/11/19 12:32:24;;;;;;;;;2.50;2.25;;;;;13.06;59.73;100856.53;4977155;28;45366;-74
2022/11/19 12:35:15;;;;;;;;;2.00;2.00;;;;;13.09;58.90;100857.25;4977337;28;45628;-75
2022/11/19 12:37:52;;;;;;;;;1.25;1.25;;;;;13.13;58.48;100856.13;4972451;28;45288;-77
2022/11/19 12:40:59;;;;;;;;;5.00;3.00;;;;;13.22;59.15;100854.75;4969348;28;45671;-71
2022/11/19 12:43:45;;;;;;;;;4.00;4.00;;;;;13.21;59.53;100853.03;4962579;28;45243;-75
2022/11/19 12:46:41;;;;;;;;;4.50;4.50;;;;;13.22;60.81;100847.56;4964611;28;45479;-71
2022/11/19 12:49:25;;;;;;;;;4.50;4.00;;;;;13.23;60.30;100843.91;4976849;28;45274;-74
2022/11/19 12:52:02;;;;;;;;;4.00;3.00;;;;;13.21;59.40;100848.50;4963510;28;45520;-72
2022/11/19 12:54:51;;;;;;;;;3.00;3.00;;;;;13.08;59.93;100852.81;4961602;28;45455;-69
2022/11/19 12:57:40;;;;;;;;;3.50;3.50;;;;;12.94;60.31;100846.41;4977028;28;45231;-73
2022/11/19 13:00:15;;;;;;;;;3.75;3.75;;;;;12.95;60.67;100848.16;4959547;28;45526;-75
2022/11/19 13:03:13;;;;;;;;;3.00;2.00;;;;;12.88;60.68;100853.00;4980394;28;45678;-73
2022/11/19 13:05:54;;;;;;;;;3.50;2.00;;;;;12.83;60.76;100849.69;4962223;28;45459;-78
2022/11/19 13:08:34;;;;;;;;;3.25;3.25;;;;;12.78;60.92;100858.00;4980762;28;45302;-73
2022/11/19 13:11:11;;;;;;;;;3.25;3.25;;;;;12.79;61.23;100858.88;4978073;28;45683;-74
2022/11/19 13:13:43;;;;;;;;;5.00;4.00;;;;;12.80;61.35;100847.16;4975147;28;46303;-74
2022/11/19 13:16:15;;;;;;;;;3.00;3.00;;;;;12.75;61.16;100841.16;4976866;28;45369;-73
2022/11/19 13:18:44;;;;;;;;;3.00;3.00;;;;;12.66;61.11;100837.16;4976951;28;45533;-73
2022/11/19 13:21:31;;;;;;;;;5.50;4.25;;;;;12.63;61.70;100848.06;4958827;28;46664;-73
2022/11/19 13:24:05;;;;;;;;;4.00;4.00;;;;;12.42;61.81;100844.66;4976283;28;45344;-73
2022/11/19 13:26:34;;;;;;;;;3.50;3.00;;;;;12.35;61.97;100842.38;4975799;28;45436;-77
2022/11/19 13:29:27;;;;;;;;;3.00;3.00;;;;;12.33;62.53;100855.91;4955789;28;45528;-72
2022/11/19 13:32:01;;;;;;;;;3.25;2.75;;;;;12.22;62.35;100843.97;4966123;28;45532;-71
2022/11/19 13:34:44;;;;;;;;;5.00;3.75;;;;;12.16;62.90;100836.22;4976426;28;46242;-74
2022/11/19 13:37:38;;;;;;;;;3.00;3.00;;;;;12.16;63.20;100836.22;4976086;28;45524;-72
2022/11/19 13:40:18;;;;;;;;;3.00;3.00;;;;;12.12;62.30;100828.31;4973534;28;45330;-74
2022/11/19 13:45:29;;;;;;;;;2.25;2.25;;;;;12.21;61.93;100831.47;4976115;28;45765;-74
2022/11/19 13:48:00;;;;;;;;;2.00;2.00;;;;;12.25;60.74;100835.75;4973452;28;45351;-75
2022/11/19 13:50:40;;;;;;;;;4.00;2.00;;;;;12.36;59.88;100847.66;4971333;28;45639;-73
2022/11/19 13:53:52;;;;;;;;;2.00;2.00;;;;;12.51;59.75;100854.06;4956033;28;45625;-73
2022/11/19 13:56:19;;;;;;;;;1.50;1.50;;;;;12.70;60.04;100853.97;4962486;28;46761;-73
2022/11/19 13:58:55;;;;;;;;;1.25;1.25;;;;;12.92;59.40;100837.56;4974872;28;45341;-74
2022/11/19 14:01:33;;;;;;;;;1.00;1.00;;;;;12.99;58.78;100833.59;4971686;28;45509;-73
2022/11/19 14:04:11;;;;;;;;;2.00;2.00;;;;;13.17;58.30;100844.25;4962235;28;45539;-72
2022/11/19 14:07:06;;;;;;;;;2.00;1.75;;;;;13.15;58.34;100851.53;4974746;28;45457;-72
2022/11/19 14:09:39;;;;;;;;;2.00;2.00;;;;;13.11;58.81;100857.13;4968152;28;45416;-72
2022/11/19 14:12:22;;;;;;;;;2.00;2.00;;;;;13.05;58.69;100855.66;4972732;28;45452;-74
2022/11/19 14:27:25;;;;;;;;;4.00;4.00;;;;;12.89;59.67;100843.97;4975019;28;45346;-74
2022/11/19 14:29:57;;;;;;;;;4.00;4.00;;;;;12.99;59.78;100855.13;4955291;28;46300;-73
2022/11/19 14:32:36;;;;;;;;;7.00;3.00;;;;;13.04;59.26;100861.13;4955020;28;45496;-74
2022/11/19 14:35:02;;;;;;;;;4.50;3.75;;;;;13.08;59.36;100855.50;4956383;28;45419;-73
2022/11/19 14:37:39;;;;;;;;;3.00;3.00;;;;;13.10;59.79;100860.81;4955360;28;46070;-76
2022/11/19 14:40:20;;;;;;;;;3.50;3.50;;;;;13.12;59.41;100864.25;4958644;28;46564;-75
2022/11/19 14:46:08;;;;;;;;;2.00;2.00;;;;;13.06;59.46;100862.78;4960717;28;45393;-75
2022/11/19 14:48:33;;;;;;;;;2.00;2.00;;;;;13.03;59.54;100867.44;4957507;28;45361;-75
2022/11/19 14:51:06;;;;;;;;;4.50;3.00;;;;;12.80;59.65;100834.59;4955494;28;45400;-73
2022/11/19 14:53:34;;;;;;;;;3.75;2.00;;;;;12.95;60.11;100877.75;4955760;28;45395;-73
2022/11/19 14:56:09;;;;;;;;;2.50;2.50;;;;;12.79;60.12;100854.38;4956137;28;45491;-74
2022/11/19 14:58:35;;;;;;;;;1.00;1.00;;;;;12.89;60.09;100885.22;4955813;28;45497;-70
2022/11/19 15:01:14;;;;;;;;;0.00;0.00;;;;;12.80;59.74;100880.31;4956745;28;46285;-75
2022/11/19 15:03:47;;;;;;;;;1.00;1.00;;;;;12.80;60.15;100895.59;4970596;28;45539;-75
2022/11/19 15:06:17;;;;;;;;;0.75;0.75;;;;;12.60;60.15;100875.09;4956051;28;45387;-73
2022/11/19 15:08:51;;;;;;;;;0.50;0.50;;;;;12.64;60.54;100889.28;4955414;28;46136;-76
2022/11/19 15:11:18;;;;;;;;;1.00;1.00;;;;;12.62;60.51;100896.53;4965846;28;46331;-74
2022/11/19 15:14:07;;;;;;;;;3.00;3.00;;;;;12.45;60.99;100876.78;4955855;28;45315;-73
2022/11/19 15:16:34;;;;;;;;;2.00;2.00;;;;;12.43;61.20;100880.47;4955952;28;45395;-76
2022/11/19 15:19:14;;;;;;;;;3.75;2.00;;;;;12.51;61.16;100891.72;4955160;28;45362;-72
2022/11/19 15:21:49;;;;;;;;;2.50;1.00;;;;;12.47;61.33;100900.91;4960323;28;45373;-73
2022/11/19 15:24:35;;;;;;;;;0.75;0.75;;;;;12.41;61.19;100903.91;4974426;28;45227;-71
2022/11/19 15:27:22;;;;;;;;;2.00;1.00;;;;;12.42;61.11;100908.31;4975319;28;45426;-74
2022/11/19 15:30:09;;;;;;;;;1.00;1.00;;;;;12.38;61.31;100909.44;4975126;28;45431;-73
2022/11/19 15:33:11;;;;;;;;;1.25;1.25;;;;;12.39;61.01;100901.28;4974300;28;45441;-73
2022/11/19 15:35:52;;;;;;;;;2.00;1.00;;;;;12.37;60.99;100905.88;4974425;28;45472;-73
2022/11/19 15:38:23;;;;;;;;;0.50;0.50;;;;;12.37;61.17;100905.88;4974686;28;45478;-75
2022/11/19 15:40:52;;;;;;;;;1.00;1.00;;;;;12.26;61.52;100875.97;4974209;28;45589;-74
2022/11/19 15:43:33;;;;;;;;;0.00;0.00;;;;;12.32;60.98;100899.88;4974531;28;46137;-74
2022/11/19 15:46:18;;;;;;;;;0.25;0.25;;;;;12.35;60.75;100910.44;4963718;28;45367;-74
2022/11/19 15:49:03;;;;;;;;;1.75;1.75;;;;;12.33;61.47;100919.56;4977977;28;45413;-71
2022/11/19 15:51:35;;;;;;;;;1.50;1.50;;;;;12.18;61.25;100897.00;4978147;28;45322;-75
2022/11/19 15:54:03;;;;;;;;;1.50;1.50;;;;;12.25;61.83;100914.53;4977545;28;45519;-74
2022/11/19 15:56:33;;;;;;;;;1.00;1.00;;;;;12.20;61.90;100915.72;4977797;28;45317;-74
2022/11/19 15:59:01;;;;;;;;;1.00;0.50;;;;;12.19;61.96;100909.47;4977768;28;45371;-74
2022/11/19 16:01:28;;;;;;;;;1.25;1.25;;;;;12.12;62.13;100903.56;4978247;28;45421;-76
2022/11/19 16:03:54;;;;;;;;;2.00;2.00;;;;;12.16;62.93;100911.47;4977575;28;45402;-74
2022/11/19 16:06:28;;;;;;;;;2.75;1.75;;;;;12.07;62.75;100910.97;4978045;28;45478;-73
2022/11/19 16:08:55;;;;;;;;;2.00;2.00;;;;;12.04;63.59;100912.94;4957518;28;45317;-73
2022/11/19 16:17:33;;;;;;;;;1.25;1.25;;;;;11.95;64.99;100916.06;4981109;28;45255;-75
2022/11/19 16:20:11;;;;;;;;;4.00;2.00;;;;;11.81;65.21;100913.19;4979593;28;45330;-75
2022/11/19 16:22:48;;;;;;;;;2.00;2.00;;;;;11.78;65.39;100918.69;4978655;28;45622;-75
2022/11/19 16:25:35;;;;;;;;;5.75;4.00;;;;;11.73;66.30;100921.59;4959909;28;47334;-73
2022/11/19 16:28:06;;;;;;;;;2.50;2.50;;;;;11.66;66.54;100902.19;4977429;28;45325;-73
2022/11/19 16:30:49;;;;;;;;;4.00;4.00;;;;;11.70;66.47;100914.53;4969758;28;45421;-71
2022/11/19 16:33:27;;;;;;;;;3.75;3.75;;;;;11.58;66.81;100884.69;4977142;28;45520;-73
2022/11/19 16:36:13;;;;;;;;;5.50;5.25;;;;;11.67;67.09;100912.00;4976788;28;45364;-71
2022/11/19 16:38:42;;;;;;;;;6.00;6.00;;;;;11.74;66.71;100916.16;4976639;28;45512;-72
2022/11/19 16:43:55;;;;;;;;;4.00;4.00;;;;;11.68;66.48;100920.91;4970320;28;45339;-73
2022/11/19 16:46:26;;;;;;;;;5.75;4.00;;;;;11.65;66.67;100924.63;4968405;28;46006;-72
2022/11/19 16:48:54;;;;;;;;;3.25;3.25;;;;;11.62;66.67;100922.09;4952714;28;45258;-72
2022/11/19 16:51:35;;;;;;;;;5.50;4.00;;;;;11.58;66.74;100928.53;4974051;28;45735;-73
2022/11/19 16:54:02;;;;;;;;;5.25;5.25;;;;;11.57;66.94;100936.69;4975873;28;45611;-73
2022/11/19 16:56:46;;;;;;;;;8.50;8.00;;;;;11.51;67.07;100929.78;4972951;28;46552;-72
2022/11/19 16:59:20;;;;;;;;;5.25;5.00;;;;;11.46;66.67;100929.13;4964496;28;45508;-75
2022/11/19 17:01:54;;;;;;;;;5.00;3.25;;;;;11.40;66.91;100921.34;4975196;28;45438;-71
2022/11/19 17:04:22;;;;;;;;;2.50;2.00;;;;;11.44;66.69;100933.69;4972638;28;46648;-72
2022/11/19 17:06:47;;;;;;;;;1.25;1.25;;;;;11.45;67.16;100931.88;4956441;28;45568;-70
2022/11/19 17:09:41;;;;;;;;;3.00;3.00;;;;;11.42;67.01;100923.97;4975463;28;45333;-73
2022/11/19 17:12:26;;;;;;;;;4.00;4.00;;;;;11.47;66.78;100924.63;4976494;28;45386;-74
2022/11/19 17:14:54;;;;;;;;;4.00;4.00;;;;;11.51;66.67;100935.16;4976243;28;45306;-72
2022/11/19 17:17:37;;;;;;;;;3.00;3.00;;;;;11.44;66.70;100925.63;4976443;28;46171;-72
2022/11/19 17:20:29;;;;;;;;;3.75;3.75;;;;;11.51;66.64;100935.16;4955825;28;45480;-73
2022/11/19 17:22:55;;;;;;;;;3.25;3.25;;;;;11.48;66.37;100940.69;4972616;28;45558;-71
2022/11/19 17:25:21;;;;;;;;;3.00;3.00;;;;;11.45;66.72;100929.19;4976386;28;45322;-73
2022/11/19 17:27:53;;;;;;;;;7.75;6.00;;;;;11.45;66.35;100931.88;4976294;28;45298;-72
2022/11/19 17:30:19;;;;;;;;;5.00;5.00;;;;;11.51;66.43;100947.69;4976918;28;45434;-74
2022/11/19 17:32:51;;;;;;;;;5.00;4.75;;;;;11.49;66.83;100938.84;4976180;28;45429;-72